createdAt,value
2023-01-19T00:01:25.498Z,99299.13
2023-01-19T00:06:27.240Z,99298.00
2023-01-19T00:11:28.701Z,99294.47
2023-01-19T00:16:30.206Z,99302.13
2023-01-19T00:21:31.724Z,99308.16
2023-01-19T00:26:33.291Z,99312.16
2023-01-19T00:31:34.899Z,99316.38
2023-01-19T00:36:36.538Z,99322.72
2023-01-19T00:41:37.954Z,99328.72
2023-01-19T00:46:39.489Z,99337.09
2023-01-19T00:51:40.988Z,99339.72
2023-01-19T00:56:42.485Z,99337.13
2023-01-19T01:01:45.249Z,99348.63
2023-01-19T01:06:47.785Z,99360.28
2023-01-19T01:11:49.260Z,99357.97
2023-01-19T01:16:50.834Z,99353.94
2023-01-19T01:21:52.349Z,99358.78
2023-01-19T01:26:53.929Z,99357.94
2023-01-19T01:31:55.459Z,99365.53
2023-01-19T01:36:56.933Z,99366.78
2023-01-19T01:41:58.359Z,99364.06
2023-01-19T01:46:59.939Z,99365.09
2023-01-19T01:52:01.625Z,99365.16
2023-01-19T01:57:08.238Z,99361.41
2023-01-19T02:02:14.689Z,99355.75
2023-01-19T02:07:33.282Z,99350.78
2023-01-19T02:12:34.922Z,99366.03
2023-01-19T02:17:36.482Z,99366.19
2023-01-19T02:22:49.876Z,99365.84
2023-01-19T02:27:51.738Z,99352.97
2023-01-19T02:32:53.285Z,99355.66
2023-01-19T02:37:54.844Z,99348.59
2023-01-19T02:42:59.659Z,99353.22
2023-01-19T02:48:01.760Z,99356.78
2023-01-19T02:53:36.735Z,99351.03
2023-01-19T02:59:04.318Z,99356.66
2023-01-19T03:04:34.419Z,99348.75
2023-01-19T03:10:03.583Z,99340.63
2023-01-19T03:15:17.166Z,99345.81
2023-01-19T03:20:23.199Z,99342.19
2023-01-19T03:25:25.781Z,99344.81
2023-01-19T03:30:41.925Z,99350.78
2023-01-19T03:35:49.669Z,99341.31
2023-01-19T03:40:55.844Z,99350.03
2023-01-19T03:45:57.583Z,99351.06
2023-01-19T03:51:04.140Z,99340.66
2023-01-19T03:56:06.758Z,99345.66
2023-01-19T04:01:08.784Z,99354.41
2023-01-19T04:06:10.765Z,99351.63
2023-01-19T04:11:12.281Z,99352.38
2023-01-19T04:16:13.907Z,99353.09
2023-01-19T04:21:16.034Z,99356.44
2023-01-19T04:26:17.489Z,99356.41
2023-01-19T04:31:19.007Z,99361.03
2023-01-19T04:36:20.461Z,99364.38
2023-01-19T04:41:22.057Z,99363.00
2023-01-19T04:46:23.615Z,99374.03
2023-01-19T04:51:25.149Z,99372.50
2023-01-19T04:56:26.742Z,99371.56
2023-01-19T05:01:28.303Z,99369.41
2023-01-19T05:06:33.935Z,99375.06
2023-01-19T05:11:35.919Z,99376.50
2023-01-19T05:16:37.568Z,99382.03
2023-01-19T05:21:39.413Z,99381.69
2023-01-19T05:26:41.425Z,99384.34
2023-01-19T05:31:43.053Z,99379.94
2023-01-19T05:36:44.807Z,99386.56
2023-01-19T05:41:46.356Z,99400.91
2023-01-19T05:46:48.167Z,99406.69
2023-01-19T05:51:49.646Z,99412.03
2023-01-19T05:56:51.213Z,99405.88
2023-01-19T06:01:53.443Z,99407.34
2023-01-19T06:06:55.274Z,99405.28
2023-01-19T06:11:56.676Z,99401.78
2023-01-19T06:16:58.192Z,99407.41
2023-01-19T06:21:59.574Z,99410.25
2023-01-19T06:27:01.144Z,99409.66
2023-01-19T06:32:03.025Z,99415.38
2023-01-19T06:37:04.457Z,99426.13
2023-01-19T06:42:05.908Z,99417.19
2023-01-19T06:47:15.617Z,99418.41
2023-01-19T06:52:17.672Z,99406.72
2023-01-19T06:57:19.155Z,99405.31
2023-01-19T07:02:26.346Z,99403.66
2023-01-19T07:07:29.828Z,99413.97
2023-01-19T07:12:31.267Z,99416.91
2023-01-19T07:17:32.899Z,99425.31
2023-01-19T07:22:34.330Z,99428.34
2023-01-19T07:27:35.740Z,99425.75
2023-01-19T07:32:37.173Z,99433.69
2023-01-19T07:37:38.650Z,99441.75
2023-01-19T07:42:40.163Z,99447.69
2023-01-19T07:47:44.273Z,99468.56
2023-01-19T07:52:45.729Z,99452.91
2023-01-19T07:57:51.429Z,99456.94
2023-01-19T08:02:52.913Z,99458.06
2023-01-19T08:07:55.450Z,99459.97
2023-01-19T08:12:57.739Z,99467.47
2023-01-19T08:18:01.519Z,99481.91
2023-01-19T08:23:03.947Z,99486.06
2023-01-19T08:28:06.900Z,99498.59
2023-01-19T08:33:08.415Z,99503.63
2023-01-19T08:38:10.750Z,99502.13
2023-01-19T08:43:15.205Z,99503.78
2023-01-19T08:48:20.125Z,99508.94
2023-01-19T08:53:22.477Z,99514.66
2023-01-19T08:58:24.319Z,99511.22
2023-01-19T09:03:25.900Z,99508.50
2023-01-19T09:08:27.513Z,99509.50
2023-01-19T09:13:29.321Z,99520.28
2023-01-19T09:18:30.778Z,99513.16
2023-01-19T09:23:32.792Z,99514.03
2023-01-19T09:28:34.441Z,99526.38
2023-01-19T09:33:35.999Z,99526.16
2023-01-19T09:38:37.518Z,99528.41
2023-01-19T09:43:42.763Z,99525.84
2023-01-19T09:48:46.482Z,99534.50
2023-01-19T09:53:56.794Z,99541.72
2023-01-19T09:59:00.005Z,99533.25
2023-01-19T10:04:08.949Z,99528.34
2023-01-19T10:09:28.232Z,99524.81
2023-01-19T10:14:40.214Z,99535.88
2023-01-19T10:19:46.999Z,99528.88
2023-01-19T10:24:53.628Z,99532.84
2023-01-19T10:29:55.887Z,99540.78
2023-01-19T10:34:58.613Z,99529.50
2023-01-19T10:40:36.321Z,99525.53
2023-01-19T10:45:37.780Z,99529.94
2023-01-19T10:50:39.481Z,99529.69
2023-01-19T10:55:41.064Z,99545.13
2023-01-19T11:00:44.219Z,99544.31
2023-01-19T11:05:45.899Z,99539.59
2023-01-19T11:10:55.461Z,99532.69
2023-01-19T11:15:59.594Z,99553.09
2023-01-19T11:21:04.212Z,99552.56
2023-01-19T11:26:05.925Z,99545.03
2023-01-19T11:31:10.486Z,99539.31
2023-01-19T11:36:24.726Z,99541.25
2023-01-19T11:41:29.152Z,99540.00
2023-01-19T11:46:33.886Z,99544.09
2023-01-19T11:51:45.604Z,99539.59
2023-01-19T11:56:48.681Z,99538.78
2023-01-19T12:01:54.482Z,99537.28
2023-01-19T12:06:57.374Z,99537.38
2023-01-19T12:12:05.486Z,99534.28
2023-01-19T12:17:13.684Z,99537.19
2023-01-19T12:22:17.610Z,99528.19
2023-01-19T12:27:38.435Z,99534.78
2023-01-19T12:32:52.398Z,99529.19
2023-01-19T12:37:53.932Z,99527.34
2023-01-19T12:43:05.691Z,99522.41
2023-01-19T12:48:24.445Z,99522.25
2023-01-19T12:53:25.935Z,99511.19
2023-01-19T12:58:27.515Z,99515.25
2023-01-19T13:03:29.050Z,99514.47
2023-01-19T13:09:00.436Z,99512.13
2023-01-19T13:14:01.848Z,99509.22
2023-01-19T13:19:06.281Z,99514.19
2023-01-19T13:24:11.931Z,99519.78
2023-01-19T13:29:33.875Z,99531.53
2023-01-19T13:34:50.277Z,99528.00
2023-01-19T13:39:54.776Z,99527.44
2023-01-19T13:45:01.011Z,99529.94
2023-01-19T13:50:03.156Z,99537.53
2023-01-19T13:55:06.035Z,99539.94
2023-01-19T14:00:10.665Z,99541.28
2023-01-19T14:05:22.606Z,99551.00
2023-01-19T14:10:24.137Z,99541.13
2023-01-19T14:15:25.715Z,99535.19
2023-01-19T14:20:29.259Z,99545.66
2023-01-19T14:25:33.064Z,99547.56
2023-01-19T14:30:34.544Z,99543.59
2023-01-19T14:35:36.112Z,99544.56
2023-01-19T14:40:38.052Z,99548.63
2023-01-19T14:45:40.317Z,99553.19
2023-01-19T14:50:51.169Z,99550.41
2023-01-19T14:56:05.572Z,99547.09
2023-01-19T15:01:07.192Z,99556.38
2023-01-19T15:06:20.310Z,99561.72
2023-01-19T15:11:32.472Z,99564.84
2023-01-19T15:16:34.537Z,99578.22
2023-01-19T15:21:36.216Z,99573.56
2023-01-19T15:26:39.618Z,99578.31
2023-01-19T15:31:41.136Z,99587.66
2023-01-19T15:36:42.726Z,99592.34
2023-01-19T15:41:44.467Z,99598.00
2023-01-19T15:46:46.023Z,99596.34
2023-01-19T15:51:47.877Z,99606.16
2023-01-19T15:56:49.640Z,99609.00
2023-01-19T16:01:52.101Z,99613.06
2023-01-19T16:06:54.142Z,99610.78
2023-01-19T16:11:56.445Z,99618.38
2023-01-19T16:16:58.569Z,99622.66
2023-01-19T16:22:00.239Z,99634.97
2023-01-19T16:27:02.001Z,99636.84
2023-01-19T16:32:03.853Z,99638.09
2023-01-19T16:37:05.765Z,99637.63
2023-01-19T16:42:07.250Z,99641.19
2023-01-19T16:47:08.754Z,99643.59
2023-01-19T16:52:10.826Z,99655.47
2023-01-19T16:57:12.338Z,99651.34
2023-01-19T17:02:14.099Z,99652.94
2023-01-19T17:07:17.591Z,99670.88
2023-01-19T17:12:20.843Z,99672.03
2023-01-19T17:17:22.379Z,99673.22
2023-01-19T17:22:23.865Z,99674.88
2023-01-19T17:27:25.751Z,99683.56
2023-01-19T17:32:27.144Z,99679.16
2023-01-19T17:37:28.589Z,99679.00
2023-01-19T17:42:30.082Z,99677.44
2023-01-19T17:47:31.568Z,99695.97
2023-01-19T17:52:33.056Z,99691.84
2023-01-19T17:57:34.582Z,99701.16
2023-01-19T18:02:36.231Z,99693.63
2023-01-19T18:07:38.084Z,99706.47
2023-01-19T18:12:39.613Z,99700.69
2023-01-19T18:17:41.031Z,99706.75
2023-01-19T18:22:42.437Z,99700.88
2023-01-19T18:27:43.947Z,99713.00
2023-01-19T18:32:45.414Z,99710.38
2023-01-19T18:37:46.820Z,99705.81
2023-01-19T18:42:48.242Z,99713.13
2023-01-19T18:47:49.745Z,99714.63
2023-01-19T18:52:51.262Z,99724.41
2023-01-19T18:57:52.709Z,99717.31
2023-01-19T19:02:55.370Z,99714.03
2023-01-19T19:07:56.909Z,99721.59
2023-01-19T19:12:58.750Z,99730.03
2023-01-19T19:18:00.460Z,99730.84
2023-01-19T19:23:01.970Z,99736.03
2023-01-19T19:28:03.988Z,99730.50
2023-01-19T19:33:05.555Z,99739.41
2023-01-19T19:38:07.075Z,99742.84
2023-01-19T19:43:08.542Z,99747.50
2023-01-19T19:48:09.986Z,99749.50
2023-01-19T19:53:11.546Z,99745.47
2023-01-19T19:58:12.955Z,99749.34
2023-01-19T20:03:14.529Z,99743.31
2023-01-19T20:08:16.045Z,99754.06
2023-01-19T20:13:17.582Z,99762.59
2023-01-19T20:18:19.059Z,99765.97
2023-01-19T20:23:20.532Z,99765.88
2023-01-19T20:28:21.992Z,99768.06
2023-01-19T20:33:23.421Z,99772.00
2023-01-19T20:38:24.899Z,99777.81
2023-01-19T20:43:26.312Z,99783.56
2023-01-19T20:48:28.045Z,99791.16
2023-01-19T20:53:29.867Z,99800.88
2023-01-19T20:58:31.613Z,99799.84
2023-01-19T21:03:33.095Z,99807.31
2023-01-19T21:08:34.986Z,99812.63
2023-01-19T21:13:37.155Z,99813.72
2023-01-19T21:18:38.737Z,99820.84
2023-01-19T21:23:40.214Z,99816.31
2023-01-19T21:28:41.752Z,99825.66
2023-01-19T21:33:43.315Z,99830.91
2023-01-19T21:38:44.905Z,99834.63
2023-01-19T21:43:46.637Z,99836.53
2023-01-19T21:48:48.201Z,99823.03
2023-01-19T21:53:50.352Z,99839.97
2023-01-19T21:58:51.845Z,99850.78
2023-01-19T22:03:57.012Z,99859.50
2023-01-19T22:08:58.822Z,99857.94
2023-01-19T22:14:00.317Z,99862.72
2023-01-19T22:19:01.946Z,99867.09
2023-01-19T22:24:05.368Z,99870.69
2023-01-19T22:29:07.252Z,99871.72
2023-01-19T22:34:09.044Z,99883.00
2023-01-19T22:39:12.514Z,99886.97
2023-01-19T22:44:16.382Z,99882.09
2023-01-19T22:49:18.370Z,99884.28
2023-01-19T22:54:19.859Z,99887.16
2023-01-19T22:59:21.306Z,99895.00
2023-01-19T23:04:22.723Z,99893.34
2023-01-19T23:09:24.149Z,99901.66
2023-01-19T23:14:25.742Z,99902.88
2023-01-19T23:19:27.238Z,99900.59
2023-01-19T23:24:28.695Z,99896.91
2023-01-19T23:29:30.273Z,99911.31
2023-01-19T23:34:31.701Z,99924.78
2023-01-19T23:39:33.228Z,99916.34
2023-01-19T23:44:34.660Z,99924.41
2023-01-19T23:49:36.168Z,99918.63
2023-01-19T23:54:37.596Z,99933.78
2023-01-19T23:59:39.088Z,99932.81
